sensor_id;sensor_type;location;lat;lon;timestamp;P1;durP1;ratioP1;P2;durP2;ratioP2
5533;SDS011;2789;51.902;7.636;2024-02-15T00:00:55;43.92;;;18.73;;
5533;SDS011;2789;51.902;7.636;2024-02-15T00:01:59;26.83;;;13.63;;
5533;SDS011;2789;51.902;7.636;2024-02-15T00:03:02;26.90;;;13.10;;
5533;SDS011;2789;51.902;7.636;2024-02-15T00:04:25;41.53;;;17.08;;
5533;SDS011;2789;51.902;7.636;2024-02-15T00:05:28;54.63;;;22.27;;
5533;SDS011;2789;51.902;7.636;2024-02-15T00:06:31;42.17;;;18.65;;
5533;SDS011;2789;51.902;7.636;2024-02-15T00:07:34;46.90;;;19.30;;
5533;SDS011;2789;51.902;7.636;2024-02-15T00:08:36;18.77;;;10.27;;
5533;SDS011;2789;51.902;7.636;2024-02-15T00:09:39;24.75;;;12.00;;
5533;SDS011;2789;51.902;7.636;2024-02-15T00:10:41;25.42;;;12.50;;
5533;SDS011;2789;51.902;7.636;2024-02-15T00:11:43;40.22;;;17.75;;
5533;SDS011;2789;51.902;7.636;2024-02-15T00:12:45;38.47;;;17.50;;
5533;SDS011;2789;51.902;7.636;2024-02-15T00:13:48;40.58;;;16.83;;
5533;SDS011;2789;51.902;7.636;2024-02-15T00:14:50;65.50;;;25.27;;
5533;SDS011;2789;51.902;7.636;2024-02-15T00:15:53;65.95;;;24.95;;
5533;SDS011;2789;51.902;7.636;2024-02-15T00:16:55;37.53;;;17.27;;
5533;SDS011;2789;51.902;7.636;2024-02-15T00:17:58;24.88;;;11.93;;
5533;SDS011;2789;51.902;7.636;2024-02-15T00:19:00;45.42;;;19.58;;
5533;SDS011;2789;51.902;7.636;2024-02-15T00:20:02;32.85;;;15.55;;
5533;SDS011;2789;51.902;7.636;2024-02-15T00:21:10;24.20;;;11.90;;
5533;SDS011;2789;51.902;7.636;2024-02-15T00:22:14;48.28;;;19.75;;
5533;SDS011;2789;51.902;7.636;2024-02-15T00:23:16;36.35;;;16.40;;
5533;SDS011;2789;51.902;7.636;2024-02-15T00:24:18;27.35;;;13.30;;
5533;SDS011;2789;51.902;7.636;2024-02-15T00:25:21;59.13;;;23.35;;
5533;SDS011;2789;51.902;7.636;2024-02-15T00:26:23;23.40;;;11.25;;
5533;SDS011;2789;51.902;7.636;2024-02-15T00:27:26;29.60;;;13.40;;
5533;SDS011;2789;51.902;7.636;2024-02-15T00:28:27;34.97;;;14.98;;
5533;SDS011;2789;51.902;7.636;2024-02-15T00:29:30;28.40;;;13.50;;
5533;SDS011;2789;51.902;7.636;2024-02-15T00:30:33;27.25;;;12.50;;
5533;SDS011;2789;51.902;7.636;2024-02-15T00:31:35;45.88;;;19.00;;
5533;SDS011;2789;51.902;7.636;2024-02-15T00:32:38;21.35;;;10.75;;
5533;SDS011;2789;51.902;7.636;2024-02-15T00:33:41;45.13;;;17.88;;
5533;SDS011;2789;51.902;7.636;2024-02-15T00:34:43;35.15;;;14.43;;
5533;SDS011;2789;51.902;7.636;2024-02-15T00:35:47;45.55;;;18.15;;
5533;SDS011;2789;51.902;7.636;2024-02-15T00:36:51;54.13;;;20.85;;
5533;SDS011;2789;51.902;7.636;2024-02-15T00:37:55;45.45;;;18.10;;
5533;SDS011;2789;51.902;7.636;2024-02-15T00:38:58;23.15;;;15.93;;
5533;SDS011;2789;51.902;7.636;2024-02-15T00:40:00;41.08;;;22.80;;
5533;SDS011;2789;51.902;7.636;2024-02-15T00:41:05;27.27;;;17.45;;
5533;SDS011;2789;51.902;7.636;2024-02-15T00:42:07;30.58;;;18.38;;
5533;SDS011;2789;51.902;7.636;2024-02-15T00:43:10;35.00;;;19.83;;
5533;SDS011;2789;51.902;7.636;2024-02-15T00:44:12;24.10;;;16.00;;
5533;SDS011;2789;51.902;7.636;2024-02-15T00:45:15;61.00;;;28.80;;
5533;SDS011;2789;51.902;7.636;2024-02-15T00:46:17;28.60;;;17.77;;
5533;SDS011;2789;51.902;7.636;2024-02-15T00:47:20;25.70;;;17.13;;
5533;SDS011;2789;51.902;7.636;2024-02-15T00:48:22;34.92;;;20.25;;
5533;SDS011;2789;51.902;7.636;2024-02-15T00:49:28;31.30;;;18.70;;
5533;SDS011;2789;51.902;7.636;2024-02-15T00:50:30;29.92;;;18.17;;
5533;SDS011;2789;51.902;7.636;2024-02-15T00:51:32;63.50;;;29.02;;
5533;SDS011;2789;51.902;7.636;2024-02-15T00:52:35;27.00;;;16.25;;
5533;SDS011;2789;51.902;7.636;2024-02-15T00:53:39;26.70;;;16.70;;
5533;SDS011;2789;51.902;7.636;2024-02-15T00:54:42;30.38;;;17.85;;
5533;SDS011;2789;51.902;7.636;2024-02-15T00:55:44;28.60;;;17.38;;
5533;SDS011;2789;51.902;7.636;2024-02-15T00:56:47;44.00;;;22.48;;
5533;SDS011;2789;51.902;7.636;2024-02-15T00:57:48;49.53;;;24.02;;
5533;SDS011;2789;51.902;7.636;2024-02-15T00:58:50;56.22;;;27.27;;
5533;SDS011;2789;51.902;7.636;2024-02-15T00:59:53;43.33;;;21.85;;
5533;SDS011;2789;51.902;7.636;2024-02-15T01:00:55;55.92;;;27.88;;
5533;SDS011;2789;51.902;7.636;2024-02-15T01:01:58;43.55;;;23.50;;
5533;SDS011;2789;51.902;7.636;2024-02-15T01:03:01;23.67;;;16.27;;
5533;SDS011;2789;51.902;7.636;2024-02-15T01:04:04;25.63;;;16.80;;
5533;SDS011;2789;51.902;7.636;2024-02-15T01:05:06;27.08;;;14.90;;
5533;SDS011;2789;51.902;7.636;2024-02-15T01:06:09;35.85;;;12.27;;
5533;SDS011;2789;51.902;7.636;2024-02-15T01:07:12;24.92;;;9.43;;
5533;SDS011;2789;51.902;7.636;2024-02-15T01:08:13;27.90;;;10.82;;
5533;SDS011;2789;51.902;7.636;2024-02-15T01:09:17;63.58;;;22.73;;
5533;SDS011;2789;51.902;7.636;2024-02-15T01:10:19;23.02;;;9.77;;
5533;SDS011;2789;51.902;7.636;2024-02-15T01:11:21;26.50;;;10.15;;
5533;SDS011;2789;51.902;7.636;2024-02-15T01:12:24;43.63;;;13.90;;
5533;SDS011;2789;51.902;7.636;2024-02-15T01:13:26;23.88;;;8.38;;
5533;SDS011;2789;51.902;7.636;2024-02-15T01:14:29;25.85;;;8.73;;
5533;SDS011;2789;51.902;7.636;2024-02-15T01:15:32;28.73;;;10.05;;
5533;SDS011;2789;51.902;7.636;2024-02-15T01:16:35;25.85;;;9.32;;
5533;SDS011;2789;51.902;7.636;2024-02-15T01:17:37;37.05;;;12.45;;
5533;SDS011;2789;51.902;7.636;2024-02-15T01:18:40;29.00;;;10.15;;
5533;SDS011;2789;51.902;7.636;2024-02-15T01:19:42;27.63;;;10.20;;
5533;SDS011;2789;51.902;7.636;2024-02-15T01:20:44;32.67;;;12.05;;
5533;SDS011;2789;51.902;7.636;2024-02-15T01:21:47;44.45;;;16.83;;
5533;SDS011;2789;51.902;7.636;2024-02-15T01:22:49;34.05;;;12.27;;
5533;SDS011;2789;51.902;7.636;2024-02-15T01:23:53;60.00;;;21.17;;
5533;SDS011;2789;51.902;7.636;2024-02-15T01:24:56;43.47;;;17.90;;
5533;SDS011;2789;51.902;7.636;2024-02-15T01:25:59;76.15;;;32.17;;
5533;SDS011;2789;51.902;7.636;2024-02-15T01:27:02;45.83;;;23.05;;
5533;SDS011;2789;51.902;7.636;2024-02-15T01:28:05;70.82;;;32.72;;
5533;SDS011;2789;51.902;7.636;2024-02-15T01:29:08;35.42;;;20.77;;
5533;SDS011;2789;51.902;7.636;2024-02-15T01:30:13;61.88;;;29.80;;
5533;SDS011;2789;51.902;7.636;2024-02-15T01:31:16;25.63;;;17.27;;
5533;SDS011;2789;51.902;7.636;2024-02-15T01:32:18;35.05;;;20.65;;
5533;SDS011;2789;51.902;7.636;2024-02-15T01:33:21;28.80;;;19.35;;
5533;SDS011;2789;51.902;7.636;2024-02-15T01:34:23;26.33;;;18.48;;
5533;SDS011;2789;51.902;7.636;2024-02-15T01:35:27;73.18;;;33.95;;
5533;SDS011;2789;51.902;7.636;2024-02-15T01:36:29;29.20;;;19.58;;
5533;SDS011;2789;51.902;7.636;2024-02-15T01:37:32;39.92;;;24.27;;
5533;SDS011;2789;51.902;7.636;2024-02-15T01:38:33;35.35;;;22.98;;
5533;SDS011;2789;51.902;7.636;2024-02-15T01:39:36;35.25;;;22.38;;
5533;SDS011;2789;51.902;7.636;2024-02-15T01:40:39;29.17;;;20.23;;
5533;SDS011;2789;51.902;7.636;2024-02-15T01:41:45;47.60;;;27.60;;
5533;SDS011;2789;51.902;7.636;2024-02-15T01:42:49;97.55;;;42.90;;
5533;SDS011;2789;51.902;7.636;2024-02-15T01:43:52;60.83;;;29.77;;
5533;SDS011;2789;51.902;7.636;2024-02-15T01:44:53;58.70;;;30.95;;
5533;SDS011;2789;51.902;7.636;2024-02-15T01:45:56;69.38;;;34.70;;
5533;SDS011;2789;51.902;7.636;2024-02-15T01:47:01;43.70;;;24.98;;
5533;SDS011;2789;51.902;7.636;2024-02-15T01:48:06;37.25;;;23.33;;
5533;SDS011;2789;51.902;7.636;2024-02-15T01:49:08;27.98;;;19.38;;
5533;SDS011;2789;51.902;7.636;2024-02-15T01:50:11;52.55;;;26.95;;
5533;SDS011;2789;51.902;7.636;2024-02-15T01:51:13;28.48;;;20.08;;
5533;SDS011;2789;51.902;7.636;2024-02-15T01:52:17;36.00;;;21.98;;
5533;SDS011;2789;51.902;7.636;2024-02-15T01:53:19;26.80;;;18.88;;
5533;SDS011;2789;51.902;7.636;2024-02-15T01:54:22;33.20;;;21.83;;
5533;SDS011;2789;51.902;7.636;2024-02-15T01:55:25;53.78;;;28.13;;
5533;SDS011;2789;51.902;7.636;2024-02-15T01:56:29;28.83;;;19.98;;
5533;SDS011;2789;51.902;7.636;2024-02-15T01:57:31;36.95;;;22.88;;
5533;SDS011;2789;51.902;7.636;2024-02-15T01:58:35;27.17;;;19.58;;
5533;SDS011;2789;51.902;7.636;2024-02-15T01:59:37;37.75;;;23.50;;
5533;SDS011;2789;51.902;7.636;2024-02-15T02:00:40;32.05;;;21.05;;
5533;SDS011;2789;51.902;7.636;2024-02-15T02:01:42;58.70;;;31.02;;
5533;SDS011;2789;51.902;7.636;2024-02-15T02:02:45;31.60;;;21.58;;
5533;SDS011;2789;51.902;7.636;2024-02-15T02:03:47;46.90;;;25.85;;
5533;SDS011;2789;51.902;7.636;2024-02-15T02:04:50;51.33;;;27.60;;
5533;SDS011;2789;51.902;7.636;2024-02-15T02:05:52;72.88;;;34.83;;
5533;SDS011;2789;51.902;7.636;2024-02-15T02:06:55;41.67;;;22.80;;
5533;SDS011;2789;51.902;7.636;2024-02-15T02:08:00;55.58;;;27.88;;
5533;SDS011;2789;51.902;7.636;2024-02-15T02:09:06;31.05;;;20.85;;
5533;SDS011;2789;51.902;7.636;2024-02-15T02:10:08;24.63;;;18.60;;
5533;SDS011;2789;51.902;7.636;2024-02-15T02:11:12;39.05;;;23.85;;
5533;SDS011;2789;51.902;7.636;2024-02-15T02:12:16;33.75;;;22.77;;
5533;SDS011;2789;51.902;7.636;2024-02-15T02:13:19;21.95;;;17.60;;
5533;SDS011;2789;51.902;7.636;2024-02-15T02:14:22;36.22;;;22.50;;
5533;SDS011;2789;51.902;7.636;2024-02-15T02:15:24;41.50;;;24.35;;
5533;SDS011;2789;51.902;7.636;2024-02-15T02:16:27;34.35;;;21.85;;
5533;SDS011;2789;51.902;7.636;2024-02-15T02:17:30;34.90;;;22.45;;
5533;SDS011;2789;51.902;7.636;2024-02-15T02:18:32;56.47;;;28.73;;
5533;SDS011;2789;51.902;7.636;2024-02-15T02:19:34;32.08;;;20.73;;
5533;SDS011;2789;51.902;7.636;2024-02-15T02:20:40;28.08;;;19.23;;
5533;SDS011;2789;51.902;7.636;2024-02-15T02:21:41;36.05;;;21.30;;
5533;SDS011;2789;51.902;7.636;2024-02-15T02:22:45;86.05;;;39.30;;
5533;SDS011;2789;51.902;7.636;2024-02-15T02:23:48;51.35;;;26.50;;
5533;SDS011;2789;51.902;7.636;2024-02-15T02:24:58;58.85;;;28.13;;
5533;SDS011;2789;51.902;7.636;2024-02-15T02:26:02;65.30;;;30.10;;
5533;SDS011;2789;51.902;7.636;2024-02-15T02:27:05;44.83;;;23.50;;
5533;SDS011;2789;51.902;7.636;2024-02-15T02:28:09;49.03;;;24.23;;
5533;SDS011;2789;51.902;7.636;2024-02-15T02:29:13;37.13;;;21.80;;
5533;SDS011;2789;51.902;7.636;2024-02-15T02:30:15;57.45;;;28.70;;
5533;SDS011;2789;51.902;7.636;2024-02-15T02:31:20;48.45;;;24.75;;
5533;SDS011;2789;51.902;7.636;2024-02-15T02:32:23;31.42;;;19.83;;
5533;SDS011;2789;51.902;7.636;2024-02-15T02:33:26;39.72;;;22.38;;
5533;SDS011;2789;51.902;7.636;2024-02-15T02:34:30;46.20;;;24.40;;
5533;SDS011;2789;51.902;7.636;2024-02-15T02:35:33;28.98;;;19.30;;
5533;SDS011;2789;51.902;7.636;2024-02-15T02:36:35;30.35;;;20.35;;
5533;SDS011;2789;51.902;7.636;2024-02-15T02:37:38;33.00;;;20.75;;
5533;SDS011;2789;51.902;7.636;2024-02-15T02:38:40;26.08;;;18.25;;
5533;SDS011;2789;51.902;7.636;2024-02-15T02:39:46;86.32;;;39.45;;
5533;SDS011;2789;51.902;7.636;2024-02-15T02:40:49;31.10;;;19.98;;
5533;SDS011;2789;51.902;7.636;2024-02-15T02:41:51;43.92;;;24.30;;
5533;SDS011;2789;51.902;7.636;2024-02-15T02:42:54;57.58;;;29.40;;
5533;SDS011;2789;51.902;7.636;2024-02-15T02:43:57;36.10;;;21.75;;
5533;SDS011;2789;51.902;7.636;2024-02-15T02:45:00;62.63;;;29.63;;
5533;SDS011;2789;51.902;7.636;2024-02-15T02:46:02;69.88;;;33.75;;
5533;SDS011;2789;51.902;7.636;2024-02-15T02:47:07;31.95;;;20.70;;
5533;SDS011;2789;51.902;7.636;2024-02-15T02:48:09;33.05;;;20.90;;
5533;SDS011;2789;51.902;7.636;2024-02-15T02:49:11;22.88;;;18.65;;
5533;SDS011;2789;51.902;7.636;2024-02-15T02:50:14;33.20;;;21.17;;
5533;SDS011;2789;51.902;7.636;2024-02-15T02:51:15;36.30;;;22.88;;
5533;SDS011;2789;51.902;7.636;2024-02-15T02:52:18;34.28;;;21.20;;
5533;SDS011;2789;51.902;7.636;2024-02-15T02:53:20;29.83;;;20.17;;
5533;SDS011;2789;51.902;7.636;2024-02-15T02:54:23;76.88;;;36.38;;
5533;SDS011;2789;51.902;7.636;2024-02-15T02:55:24;56.35;;;29.98;;
5533;SDS011;2789;51.902;7.636;2024-02-15T02:56:30;35.25;;;22.40;;
5533;SDS011;2789;51.902;7.636;2024-02-15T02:57:33;29.00;;;19.92;;
5533;SDS011;2789;51.902;7.636;2024-02-15T02:58:35;68.85;;;33.70;;
5533;SDS011;2789;51.902;7.636;2024-02-15T02:59:37;39.72;;;23.08;;
5533;SDS011;2789;51.902;7.636;2024-02-15T03:00:41;20.02;;;16.13;;
5533;SDS011;2789;51.902;7.636;2024-02-15T03:01:44;34.53;;;20.73;;
5533;SDS011;2789;51.902;7.636;2024-02-15T03:02:47;32.80;;;20.80;;
5533;SDS011;2789;51.902;7.636;2024-02-15T03:03:48;50.83;;;27.05;;
5533;SDS011;2789;51.902;7.636;2024-02-15T03:04:51;44.20;;;24.33;;
5533;SDS011;2789;51.902;7.636;2024-02-15T03:05:55;57.92;;;28.70;;
5533;SDS011;2789;51.902;7.636;2024-02-15T03:06:57;44.00;;;23.25;;
5533;SDS011;2789;51.902;7.636;2024-02-15T03:07:59;49.33;;;25.40;;
5533;SDS011;2789;51.902;7.636;2024-02-15T03:09:02;47.53;;;24.38;;
5533;SDS011;2789;51.902;7.636;2024-02-15T03:10:08;37.50;;;21.70;;
5533;SDS011;2789;51.902;7.636;2024-02-15T03:11:16;33.25;;;19.60;;
5533;SDS011;2789;51.902;7.636;2024-02-15T03:12:20;35.80;;;21.25;;
5533;SDS011;2789;51.902;7.636;2024-02-15T03:13:23;32.42;;;20.65;;
5533;SDS011;2789;51.902;7.636;2024-02-15T03:14:24;38.75;;;22.73;;
5533;SDS011;2789;51.902;7.636;2024-02-15T03:15:27;60.70;;;30.10;;
5533;SDS011;2789;51.902;7.636;2024-02-15T03:16:29;21.48;;;17.05;;
5533;SDS011;2789;51.902;7.636;2024-02-15T03:17:31;55.30;;;27.05;;
5533;SDS011;2789;51.902;7.636;2024-02-15T03:18:34;29.70;;;18.60;;
5533;SDS011;2789;51.902;7.636;2024-02-15T03:24:21;50.92;;;20.92;;
5533;SDS011;2789;51.902;7.636;2024-02-15T03:25:25;61.25;;;25.50;;
5533;SDS011;2789;51.902;7.636;2024-02-15T03:26:31;35.53;;;19.10;;
5533;SDS011;2789;51.902;7.636;2024-02-15T03:27:39;37.38;;;19.75;;
5533;SDS011;2789;51.902;7.636;2024-02-15T03:28:41;25.60;;;16.88;;
5533;SDS011;2789;51.902;7.636;2024-02-15T03:29:45;30.88;;;18.50;;
5533;SDS011;2789;51.902;7.636;2024-02-15T03:30:48;50.33;;;26.30;;
5533;SDS011;2789;51.902;7.636;2024-02-15T03:31:51;44.25;;;24.33;;
5533;SDS011;2789;51.902;7.636;2024-02-15T03:32:55;50.13;;;26.20;;
5533;SDS011;2789;51.902;7.636;2024-02-15T03:33:58;42.13;;;23.45;;
5533;SDS011;2789;51.902;7.636;2024-02-15T03:35:00;75.57;;;35.42;;
5533;SDS011;2789;51.902;7.636;2024-02-15T03:36:03;75.43;;;34.83;;
5533;SDS011;2789;51.902;7.636;2024-02-15T03:37:06;49.65;;;26.77;;
5533;SDS011;2789;51.902;7.636;2024-02-15T03:38:11;58.65;;;30.30;;
5533;SDS011;2789;51.902;7.636;2024-02-15T03:39:13;50.17;;;28.15;;
5533;SDS011;2789;51.902;7.636;2024-02-15T03:40:16;40.72;;;24.30;;
5533;SDS011;2789;51.902;7.636;2024-02-15T03:41:18;45.05;;;25.13;;
5533;SDS011;2789;51.902;7.636;2024-02-15T03:42:21;34.25;;;21.38;;
5533;SDS011;2789;51.902;7.636;2024-02-15T03:43:24;29.73;;;11.43;;
5533;SDS011;2789;51.902;7.636;2024-02-15T03:44:27;43.97;;;20.05;;
5533;SDS011;2789;51.902;7.636;2024-02-15T03:45:29;52.30;;;26.20;;
5533;SDS011;2789;51.902;7.636;2024-02-15T03:46:31;33.13;;;20.13;;
5533;SDS011;2789;51.902;7.636;2024-02-15T03:47:33;29.20;;;19.90;;
5533;SDS011;2789;51.902;7.636;2024-02-15T03:48:37;28.83;;;20.08;;
5533;SDS011;2789;51.902;7.636;2024-02-15T03:49:39;23.88;;;18.92;;
5533;SDS011;2789;51.902;7.636;2024-02-15T03:50:43;27.88;;;20.25;;
5533;SDS011;2789;51.902;7.636;2024-02-15T03:51:47;31.30;;;22.42;;
5533;SDS011;2789;51.902;7.636;2024-02-15T03:52:49;103.57;;;45.72;;
5533;SDS011;2789;51.902;7.636;2024-02-15T03:53:52;47.92;;;27.65;;
5533;SDS011;2789;51.902;7.636;2024-02-15T03:54:54;58.80;;;30.52;;
5533;SDS011;2789;51.902;7.636;2024-02-15T03:55:58;54.45;;;29.88;;
5533;SDS011;2789;51.902;7.636;2024-02-15T03:57:00;61.88;;;31.05;;
5533;SDS011;2789;51.902;7.636;2024-02-15T03:58:02;54.78;;;29.45;;
5533;SDS011;2789;51.902;7.636;2024-02-15T03:59:06;48.03;;;27.70;;
5533;SDS011;2789;51.902;7.636;2024-02-15T04:00:08;46.92;;;28.50;;
5533;SDS011;2789;51.902;7.636;2024-02-15T04:01:13;40.70;;;27.15;;
5533;SDS011;2789;51.902;7.636;2024-02-15T04:02:17;32.08;;;24.65;;
5533;SDS011;2789;51.902;7.636;2024-02-15T04:03:19;35.10;;;25.23;;
5533;SDS011;2789;51.902;7.636;2024-02-15T04:04:21;57.50;;;33.95;;
5533;SDS011;2789;51.902;7.636;2024-02-15T04:05:24;54.20;;;32.40;;
5533;SDS011;2789;51.902;7.636;2024-02-15T04:06:26;34.10;;;24.75;;
5533;SDS011;2789;51.902;7.636;2024-02-15T04:07:32;55.25;;;32.25;;
5533;SDS011;2789;51.902;7.636;2024-02-15T04:08:34;36.22;;;24.23;;
5533;SDS011;2789;51.902;7.636;2024-02-15T04:09:40;51.47;;;29.05;;
5533;SDS011;2789;51.902;7.636;2024-02-15T04:10:42;52.70;;;32.28;;
5533;SDS011;2789;51.902;7.636;2024-02-15T04:11:49;27.67;;;21.65;;
5533;SDS011;2789;51.902;7.636;2024-02-15T04:12:54;56.65;;;33.05;;
5533;SDS011;2789;51.902;7.636;2024-02-15T04:13:59;54.03;;;31.40;;
5533;SDS011;2789;51.902;7.636;2024-02-15T04:15:02;51.40;;;31.30;;
5533;SDS011;2789;51.902;7.636;2024-02-15T04:16:14;61.33;;;32.88;;
5533;SDS011;2789;51.902;7.636;2024-02-15T04:17:17;51.78;;;31.67;;
5533;SDS011;2789;51.902;7.636;2024-02-15T04:18:23;27.83;;;25.13;;
5533;SDS011;2789;51.902;7.636;2024-02-15T04:19:25;51.72;;;35.38;;
5533;SDS011;2789;51.902;7.636;2024-02-15T04:20:27;37.40;;;30.90;;
5533;SDS011;2789;51.902;7.636;2024-02-15T04:21:30;39.38;;;31.88;;
5533;SDS011;2789;51.902;7.636;2024-02-15T04:22:33;48.70;;;36.90;;
5533;SDS011;2789;51.902;7.636;2024-02-15T04:23:38;34.65;;;31.20;;
5533;SDS011;2789;51.902;7.636;2024-02-15T04:24:42;33.15;;;29.65;;
5533;SDS011;2789;51.902;7.636;2024-02-15T04:25:44;36.80;;;32.88;;
5533;SDS011;2789;51.902;7.636;2024-02-15T04:26:52;45.88;;;34.83;;
5533;SDS011;2789;51.902;7.636;2024-02-15T04:27:54;58.25;;;41.28;;
5533;SDS011;2789;51.902;7.636;2024-02-15T04:28:58;76.55;;;47.72;;
5533;SDS011;2789;51.902;7.636;2024-02-15T04:30:00;90.50;;;54.03;;
5533;SDS011;2789;51.902;7.636;2024-02-15T04:31:06;57.90;;;42.45;;
5533;SDS011;2789;51.902;7.636;2024-02-15T04:32:09;47.38;;;39.83;;
5533;SDS011;2789;51.902;7.636;2024-02-15T04:33:13;67.63;;;46.38;;
5533;SDS011;2789;51.902;7.636;2024-02-15T04:34:16;51.42;;;40.50;;
5533;SDS011;2789;51.902;7.636;2024-02-15T04:35:20;65.05;;;48.60;;
5533;SDS011;2789;51.902;7.636;2024-02-15T04:36:23;75.00;;;53.20;;
5533;SDS011;2789;51.902;7.636;2024-02-15T04:37:26;48.90;;;44.28;;
5533;SDS011;2789;51.902;7.636;2024-02-15T04:38:30;53.63;;;48.17;;
5533;SDS011;2789;51.902;7.636;2024-02-15T04:39:31;55.22;;;50.13;;
5533;SDS011;2789;51.902;7.636;2024-02-15T04:40:34;68.88;;;60.58;;
5533;SDS011;2789;51.902;7.636;2024-02-15T04:41:36;68.68;;;61.03;;
5533;SDS011;2789;51.902;7.636;2024-02-15T04:42:40;61.75;;;55.72;;
5533;SDS011;2789;51.902;7.636;2024-02-15T04:43:43;60.05;;;54.67;;
5533;SDS011;2789;51.902;7.636;2024-02-15T04:44:47;64.38;;;58.38;;
5533;SDS011;2789;51.902;7.636;2024-02-15T04:45:49;70.38;;;63.28;;
5533;SDS011;2789;51.902;7.636;2024-02-15T04:46:54;61.75;;;56.35;;
5533;SDS011;2789;51.902;7.636;2024-02-15T04:47:56;102.55;;;78.97;;
5533;SDS011;2789;51.902;7.636;2024-02-15T04:49:03;74.05;;;65.97;;
5533;SDS011;2789;51.902;7.636;2024-02-15T04:50:07;94.97;;;74.70;;
5533;SDS011;2789;51.902;7.636;2024-02-15T04:51:10;79.95;;;70.65;;
5533;SDS011;2789;51.902;7.636;2024-02-15T04:52:12;69.95;;;62.85;;
5533;SDS011;2789;51.902;7.636;2024-02-15T04:53:15;85.80;;;73.03;;
5533;SDS011;2789;51.902;7.636;2024-02-15T04:54:17;94.97;;;78.88;;
5533;SDS011;2789;51.902;7.636;2024-02-15T04:55:20;89.55;;;79.82;;
5533;SDS011;2789;51.902;7.636;2024-02-15T04:56:23;84.10;;;75.80;;
5533;SDS011;2789;51.902;7.636;2024-02-15T04:57:26;91.07;;;79.72;;
5533;SDS011;2789;51.902;7.636;2024-02-15T04:58:29;79.10;;;71.38;;
5533;SDS011;2789;51.902;7.636;2024-02-15T04:59:31;96.03;;;82.60;;
5533;SDS011;2789;51.902;7.636;2024-02-15T05:00:33;80.90;;;72.47;;
5533;SDS011;2789;51.902;7.636;2024-02-15T05:01:37;81.70;;;73.55;;
5533;SDS011;2789;51.902;7.636;2024-02-15T05:02:42;85.43;;;76.57;;
5533;SDS011;2789;51.902;7.636;2024-02-15T05:03:46;69.88;;;62.88;;
5533;SDS011;2789;51.902;7.636;2024-02-15T05:04:48;77.68;;;69.65;;
5533;SDS011;2789;51.902;7.636;2024-02-15T05:05:51;96.65;;;80.68;;
5533;SDS011;2789;51.902;7.636;2024-02-15T05:06:53;78.97;;;71.30;;
5533;SDS011;2789;51.902;7.636;2024-02-15T05:07:57;83.20;;;73.93;;
5533;SDS011;2789;51.902;7.636;2024-02-15T05:08:59;98.90;;;82.05;;
5533;SDS011;2789;51.902;7.636;2024-02-15T05:10:02;91.72;;;80.63;;
5533;SDS011;2789;51.902;7.636;2024-02-15T05:11:07;90.35;;;75.00;;
5533;SDS011;2789;51.902;7.636;2024-02-15T05:12:21;111.63;;;83.85;;
5533;SDS011;2789;51.902;7.636;2024-02-15T05:13:24;68.10;;;61.28;;
5533;SDS011;2789;51.902;7.636;2024-02-15T05:14:26;69.30;;;62.42;;
5533;SDS011;2789;51.902;7.636;2024-02-15T05:15:28;96.47;;;80.95;;
5533;SDS011;2789;51.902;7.636;2024-02-15T05:16:30;74.57;;;66.85;;
5533;SDS011;2789;51.902;7.636;2024-02-15T05:17:33;73.40;;;65.80;;
5533;SDS011;2789;51.902;7.636;2024-02-15T05:18:36;76.50;;;68.40;;
5533;SDS011;2789;51.902;7.636;2024-02-15T05:19:41;73.47;;;65.78;;
5533;SDS011;2789;51.902;7.636;2024-02-15T05:20:43;75.40;;;67.70;;
5533;SDS011;2789;51.902;7.636;2024-02-15T05:21:45;78.82;;;70.68;;
5533;SDS011;2789;51.902;7.636;2024-02-15T05:22:48;68.40;;;62.15;;
5533;SDS011;2789;51.902;7.636;2024-02-15T05:23:51;71.57;;;64.72;;
5533;SDS011;2789;51.902;7.636;2024-02-15T05:24:54;66.93;;;60.92;;
5533;SDS011;2789;51.902;7.636;2024-02-15T05:25:56;91.85;;;79.43;;
5533;SDS011;2789;51.902;7.636;2024-02-15T05:26:59;92.75;;;76.40;;
5533;SDS011;2789;51.902;7.636;2024-02-15T05:28:02;77.90;;;69.55;;
5533;SDS011;2789;51.902;7.636;2024-02-15T05:29:07;79.68;;;69.30;;
5533;SDS011;2789;51.902;7.636;2024-02-15T05:30:09;122.53;;;88.35;;
5533;SDS011;2789;51.902;7.636;2024-02-15T05:31:13;73.72;;;66.18;;
5533;SDS011;2789;51.902;7.636;2024-02-15T05:32:18;74.13;;;66.65;;
5533;SDS011;2789;51.902;7.636;2024-02-15T05:33:21;125.75;;;89.10;;
5533;SDS011;2789;51.902;7.636;2024-02-15T05:34:25;76.53;;;67.65;;
5533;SDS011;2789;51.902;7.636;2024-02-15T05:35:28;90.90;;;76.13;;
5533;SDS011;2789;51.902;7.636;2024-02-15T05:36:31;79.90;;;70.07;;
5533;SDS011;2789;51.902;7.636;2024-02-15T05:37:32;80.30;;;71.90;;
5533;SDS011;2789;51.902;7.636;2024-02-15T05:38:36;88.63;;;77.13;;
5533;SDS011;2789;51.902;7.636;2024-02-15T05:39:38;106.78;;;83.25;;
5533;SDS011;2789;51.902;7.636;2024-02-15T05:40:41;84.70;;;75.22;;
5533;SDS011;2789;51.902;7.636;2024-02-15T05:41:44;94.97;;;78.68;;
5533;SDS011;2789;51.902;7.636;2024-02-15T05:42:45;84.28;;;74.60;;
5533;SDS011;2789;51.902;7.636;2024-02-15T05:43:48;77.75;;;69.53;;
5533;SDS011;2789;51.902;7.636;2024-02-15T05:44:50;73.15;;;65.53;;
5533;SDS011;2789;51.902;7.636;2024-02-15T05:45:52;84.90;;;72.82;;
5533;SDS011;2789;51.902;7.636;2024-02-15T05:46:54;75.32;;;67.90;;
5533;SDS011;2789;51.902;7.636;2024-02-15T05:47:56;107.00;;;84.55;;
5533;SDS011;2789;51.902;7.636;2024-02-15T05:48:59;85.95;;;75.20;;
5533;SDS011;2789;51.902;7.636;2024-02-15T05:50:05;89.80;;;79.07;;
5533;SDS011;2789;51.902;7.636;2024-02-15T05:51:09;107.70;;;88.38;;
5533;SDS011;2789;51.902;7.636;2024-02-15T05:52:10;99.65;;;78.18;;
5533;SDS011;2789;51.902;7.636;2024-02-15T05:53:13;79.68;;;71.00;;
5533;SDS011;2789;51.902;7.636;2024-02-15T05:54:15;87.03;;;73.07;;
5533;SDS011;2789;51.902;7.636;2024-02-15T05:55:18;74.90;;;67.13;;
5533;SDS011;2789;51.902;7.636;2024-02-15T05:56:21;73.20;;;65.65;;
5533;SDS011;2789;51.902;7.636;2024-02-15T05:57:23;69.57;;;62.47;;
5533;SDS011;2789;51.902;7.636;2024-02-15T05:58:25;78.78;;;70.50;;
5533;SDS011;2789;51.902;7.636;2024-02-15T05:59:27;73.78;;;65.80;;
5533;SDS011;2789;51.902;7.636;2024-02-15T06:00:30;72.38;;;64.97;;
5533;SDS011;2789;51.902;7.636;2024-02-15T06:01:33;72.38;;;64.75;;
5533;SDS011;2789;51.902;7.636;2024-02-15T06:02:34;107.60;;;81.93;;
5533;SDS011;2789;51.902;7.636;2024-02-15T06:03:37;74.00;;;66.47;;
5533;SDS011;2789;51.902;7.636;2024-02-15T06:04:40;81.15;;;72.57;;
5533;SDS011;2789;51.902;7.636;2024-02-15T06:05:44;88.13;;;73.47;;
5533;SDS011;2789;51.902;7.636;2024-02-15T06:06:46;79.20;;;71.20;;
5533;SDS011;2789;51.902;7.636;2024-02-15T06:07:52;76.50;;;67.03;;
5533;SDS011;2789;51.902;7.636;2024-02-15T06:08:54;90.80;;;72.05;;
5533;SDS011;2789;51.902;7.636;2024-02-15T06:10:01;87.68;;;70.32;;
5533;SDS011;2789;51.902;7.636;2024-02-15T06:11:04;73.28;;;63.35;;
5533;SDS011;2789;51.902;7.636;2024-02-15T06:12:08;108.13;;;77.68;;
5533;SDS011;2789;51.902;7.636;2024-02-15T06:13:10;73.22;;;64.55;;
5533;SDS011;2789;51.902;7.636;2024-02-15T06:14:13;78.05;;;60.83;;
5533;SDS011;2789;51.902;7.636;2024-02-15T06:15:14;59.22;;;53.28;;
5533;SDS011;2789;51.902;7.636;2024-02-15T06:16:18;58.60;;;52.70;;
5533;SDS011;2789;51.902;7.636;2024-02-15T06:17:20;57.22;;;51.30;;
5533;SDS011;2789;51.902;7.636;2024-02-15T06:18:24;55.83;;;49.80;;
5533;SDS011;2789;51.902;7.636;2024-02-15T06:19:30;55.45;;;49.58;;
5533;SDS011;2789;51.902;7.636;2024-02-15T06:20:33;59.70;;;50.25;;
5533;SDS011;2789;51.902;7.636;2024-02-15T06:21:38;47.30;;;42.92;;
5533;SDS011;2789;51.902;7.636;2024-02-15T06:22:40;54.05;;;48.63;;
5533;SDS011;2789;51.902;7.636;2024-02-15T06:23:41;54.33;;;49.38;;
5533;SDS011;2789;51.902;7.636;2024-02-15T06:24:44;57.80;;;52.13;;
5533;SDS011;2789;51.902;7.636;2024-02-15T06:25:46;82.82;;;63.55;;